createdAt,value
2019-03-27T00:00:06.746Z,0
2019-03-27T00:01:08.123Z,0
2019-03-27T00:02:10.249Z,0
2019-03-27T00:03:10.836Z,0
2019-03-27T00:04:12.252Z,0
2019-03-27T00:05:13.625Z,0
2019-03-27T00:06:14.995Z,0
2019-03-27T00:07:16.381Z,0
2019-03-27T00:08:17.772Z,0
2019-03-27T00:09:19.147Z,0
2019-03-27T00:10:20.535Z,0
2019-03-27T00:11:21.921Z,0
2019-03-27T00:12:23.295Z,0
2019-03-27T00:13:24.703Z,0
2019-03-27T00:14:26.113Z,0
2019-03-27T00:15:27.496Z,0
2019-03-27T00:16:28.906Z,0
2019-03-27T00:17:30.356Z,0
2019-03-27T00:18:31.760Z,0
2019-03-27T00:19:33.131Z,0
2019-03-27T00:20:34.522Z,0
2019-03-27T00:21:35.912Z,0
2019-03-27T00:22:37.299Z,0
2019-03-27T00:23:38.684Z,0
2019-03-27T00:24:40.070Z,0
2019-03-27T00:25:41.451Z,0
2019-03-27T00:26:42.846Z,0
2019-03-27T00:27:44.229Z,0
2019-03-27T00:28:45.607Z,0
2019-03-27T00:29:47.010Z,0
2019-03-27T00:30:48.418Z,0
2019-03-27T00:31:49.804Z,0
2019-03-27T00:32:51.186Z,0
2019-03-27T00:33:52.579Z,0
2019-03-27T00:34:53.957Z,0
2019-03-27T00:35:55.338Z,0
2019-03-27T00:36:56.729Z,0
2019-03-27T00:37:58.109Z,0
2019-03-27T00:38:59.495Z,0
2019-03-27T00:40:00.902Z,0
2019-03-27T00:41:02.339Z,0
2019-03-27T00:42:03.745Z,0
2019-03-27T00:43:05.198Z,0
2019-03-27T00:44:06.611Z,0
2019-03-27T00:45:07.998Z,0
2019-03-27T00:46:09.428Z,0
2019-03-27T00:47:10.830Z,0
2019-03-27T00:48:12.237Z,0
2019-03-27T00:49:13.615Z,0
2019-03-27T00:50:15.012Z,0
2019-03-27T00:51:16.409Z,0
2019-03-27T00:52:17.791Z,0
2019-03-27T00:53:19.169Z,0
2019-03-27T00:54:20.566Z,0
2019-03-27T00:55:21.946Z,0
2019-03-27T00:56:23.341Z,0
2019-03-27T00:57:24.738Z,0
2019-03-27T00:58:26.130Z,0
2019-03-27T00:59:27.523Z,0
2019-03-27T01:00:28.913Z,0
2019-03-27T01:01:30.292Z,0
2019-03-27T01:02:31.683Z,0
2019-03-27T01:03:33.057Z,0
2019-03-27T01:04:34.465Z,0
2019-03-27T01:05:35.843Z,0
2019-03-27T01:06:37.217Z,0
2019-03-27T01:07:38.618Z,0
2019-03-27T01:08:40.011Z,0
2019-03-27T01:09:41.427Z,0
2019-03-27T01:10:42.815Z,0
2019-03-27T01:11:44.260Z,0
2019-03-27T01:12:45.676Z,0
2019-03-27T01:13:47.106Z,0
2019-03-27T01:14:48.561Z,0
2019-03-27T01:15:49.958Z,0
2019-03-27T01:16:51.336Z,0
2019-03-27T01:17:52.719Z,0
2019-03-27T01:18:54.112Z,0
2019-03-27T01:19:55.486Z,0
2019-03-27T01:20:56.880Z,0
2019-03-27T01:21:58.278Z,0
2019-03-27T01:22:59.666Z,0
2019-03-27T01:24:01.050Z,0
2019-03-27T01:25:02.422Z,0
2019-03-27T01:26:06.916Z,0
2019-03-27T01:27:08.323Z,0
2019-03-27T01:28:09.714Z,0
2019-03-27T01:29:11.168Z,0
2019-03-27T01:30:12.594Z,0
2019-03-27T01:31:13.996Z,0
2019-03-27T01:32:15.428Z,0
2019-03-27T01:33:16.820Z,0
2019-03-27T01:34:21.879Z,0
2019-03-27T01:35:23.267Z,0
2019-03-27T01:36:24.643Z,0
2019-03-27T01:37:26.039Z,0
2019-03-27T01:38:28.933Z,0
2019-03-27T01:39:28.769Z,0
2019-03-27T01:40:30.149Z,0
2019-03-27T01:41:31.542Z,0
2019-03-27T01:42:32.922Z,0
2019-03-27T01:43:34.304Z,0
2019-03-27T01:44:35.688Z,0
2019-03-27T01:45:37.094Z,0
2019-03-27T01:46:38.510Z,0
2019-03-27T01:47:39.889Z,0
2019-03-27T01:48:41.276Z,0
2019-03-27T01:49:42.653Z,0
2019-03-27T01:50:44.042Z,0
2019-03-27T01:51:45.428Z,0
2019-03-27T01:52:46.812Z,0
2019-03-27T01:53:48.204Z,0
2019-03-27T01:54:49.591Z,0
2019-03-27T01:55:50.972Z,0
2019-03-27T01:56:52.378Z,0
2019-03-27T01:57:53.763Z,0
2019-03-27T01:58:55.134Z,0
2019-03-27T01:59:56.530Z,0
2019-03-27T02:00:57.922Z,0
2019-03-27T02:01:59.305Z,0
2019-03-27T02:03:00.687Z,0
2019-03-27T02:04:02.063Z,0
2019-03-27T02:05:03.453Z,0
2019-03-27T02:06:04.833Z,0
2019-03-27T02:07:06.233Z,0
2019-03-27T02:08:07.673Z,0
2019-03-27T02:09:09.075Z,0
2019-03-27T02:10:11.221Z,0
2019-03-27T02:11:12.632Z,0
2019-03-27T02:12:14.031Z,0
2019-03-27T02:13:15.571Z,0
2019-03-27T02:14:16.875Z,0
2019-03-27T02:15:18.313Z,0
2019-03-27T02:16:19.699Z,0
2019-03-27T02:17:21.080Z,0
2019-03-27T02:18:22.464Z,0
2019-03-27T02:19:23.842Z,0
2019-03-27T02:20:25.227Z,0
2019-03-27T02:21:26.606Z,0
2019-03-27T02:22:27.994Z,0
2019-03-27T02:23:29.372Z,0
2019-03-27T02:24:30.779Z,0
2019-03-27T02:25:32.141Z,0
2019-03-27T02:26:33.524Z,0
2019-03-27T02:27:34.913Z,0
2019-03-27T02:28:36.297Z,0
2019-03-27T02:29:37.682Z,0
2019-03-27T02:30:39.068Z,0
2019-03-27T02:31:40.451Z,0
2019-03-27T02:32:41.851Z,0
2019-03-27T02:33:43.233Z,0
2019-03-27T02:34:44.617Z,0
2019-03-27T02:35:46.021Z,0
2019-03-27T02:36:47.444Z,0
2019-03-27T02:37:48.852Z,0
2019-03-27T02:38:50.293Z,0
2019-03-27T02:39:51.710Z,0
2019-03-27T02:40:53.088Z,0
2019-03-27T02:41:54.473Z,0
2019-03-27T02:42:55.855Z,0
2019-03-27T02:43:57.236Z,0
2019-03-27T02:44:58.625Z,0
2019-03-27T02:46:00.005Z,0
2019-03-27T02:47:01.388Z,0
2019-03-27T02:48:02.782Z,0
2019-03-27T02:49:04.156Z,0
2019-03-27T02:50:05.550Z,0
2019-03-27T02:51:06.938Z,0
2019-03-27T02:52:08.349Z,0
2019-03-27T02:53:09.726Z,0
2019-03-27T02:54:11.097Z,0
2019-03-27T02:55:12.484Z,0
2019-03-27T02:56:13.867Z,0
2019-03-27T02:57:15.262Z,0
2019-03-27T02:58:16.637Z,0
2019-03-27T02:59:18.055Z,0
2019-03-27T03:00:19.447Z,0
2019-03-27T03:01:20.849Z,0
2019-03-27T03:02:22.230Z,0
2019-03-27T03:03:23.613Z,0
2019-03-27T03:04:24.966Z,0
2019-03-27T03:05:26.374Z,0
2019-03-27T03:06:27.757Z,0
2019-03-27T03:07:29.215Z,0
2019-03-27T03:08:30.547Z,0
2019-03-27T03:09:31.945Z,0
2019-03-27T03:10:33.328Z,0
2019-03-27T03:11:34.720Z,0
2019-03-27T03:12:36.101Z,0
2019-03-27T03:13:37.493Z,0
2019-03-27T03:14:38.962Z,0
2019-03-27T03:15:40.226Z,0
2019-03-27T03:16:43.412Z,0
2019-03-27T03:17:43.944Z,0
2019-03-27T03:18:45.327Z,0
2019-03-27T03:19:46.715Z,0
2019-03-27T03:20:48.118Z,0
2019-03-27T03:21:49.493Z,0
2019-03-27T03:22:50.874Z,0
2019-03-27T03:23:52.251Z,0
2019-03-27T03:24:53.679Z,0
2019-03-27T03:25:55.062Z,0
2019-03-27T03:26:56.463Z,0
2019-03-27T03:27:57.877Z,0
2019-03-27T03:28:59.261Z,0
2019-03-27T03:30:00.722Z,0
2019-03-27T03:31:02.029Z,0
2019-03-27T03:32:03.437Z,0
2019-03-27T03:33:04.786Z,0
2019-03-27T03:34:06.128Z,0
2019-03-27T03:35:07.519Z,0
2019-03-27T03:36:08.914Z,0
2019-03-27T03:37:10.299Z,0
2019-03-27T03:38:11.675Z,0
2019-03-27T03:39:13.067Z,0
2019-03-27T03:40:14.490Z,0
2019-03-27T03:41:15.877Z,0
2019-03-27T03:42:17.269Z,0
2019-03-27T03:43:18.655Z,0
2019-03-27T03:44:20.034Z,0
2019-03-27T03:45:21.424Z,0
2019-03-27T03:46:22.804Z,0
2019-03-27T03:47:24.206Z,0
2019-03-27T03:48:25.590Z,0
2019-03-27T03:49:27.042Z,0
2019-03-27T03:50:28.483Z,0
2019-03-27T03:51:29.935Z,0
2019-03-27T03:52:31.355Z,0
2019-03-27T03:53:32.749Z,0
2019-03-27T03:54:34.132Z,0
2019-03-27T03:55:35.516Z,0
2019-03-27T03:56:36.921Z,0
2019-03-27T03:57:38.299Z,0
2019-03-27T03:58:39.679Z,0
2019-03-27T03:59:41.066Z,0
2019-03-27T04:00:42.450Z,0
2019-03-27T04:01:43.844Z,0
2019-03-27T04:02:45.231Z,0
2019-03-27T04:03:46.635Z,0
2019-03-27T04:04:48.017Z,0
2019-03-27T04:05:49.415Z,0
2019-03-27T04:06:50.795Z,0
2019-03-27T04:07:52.191Z,0
2019-03-27T04:08:53.571Z,0
2019-03-27T04:09:54.966Z,0
2019-03-27T04:10:56.385Z,0
2019-03-27T04:11:57.791Z,0
2019-03-27T04:12:59.192Z,0
2019-03-27T04:14:00.588Z,0
2019-03-27T04:15:02.078Z,0
2019-03-27T04:16:03.337Z,0
2019-03-27T04:17:16.993Z,0
2019-03-27T04:18:06.087Z,0
2019-03-27T04:19:07.473Z,0
2019-03-27T04:20:08.860Z,0
2019-03-27T04:21:10.257Z,0
2019-03-27T04:22:11.646Z,0
2019-03-27T04:23:13.030Z,0
2019-03-27T04:24:14.417Z,0
2019-03-27T04:25:15.798Z,0
2019-03-27T04:26:17.179Z,0
2019-03-27T04:27:18.573Z,0
2019-03-27T04:28:20.001Z,0
2019-03-27T04:29:21.350Z,0
2019-03-27T04:30:22.735Z,0
2019-03-27T04:31:24.117Z,0
2019-03-27T04:32:25.701Z,4
2019-03-27T04:33:27.124Z,0
2019-03-27T04:34:28.508Z,0
2019-03-27T04:35:29.900Z,4
2019-03-27T04:36:31.283Z,4
2019-03-27T04:37:32.657Z,0
2019-03-27T04:38:34.054Z,4
2019-03-27T04:39:35.432Z,4
2019-03-27T04:40:36.814Z,8
2019-03-27T04:41:38.204Z,8
2019-03-27T04:42:39.587Z,8
2019-03-27T04:43:40.968Z,8
2019-03-27T04:44:42.361Z,8
2019-03-27T04:45:43.780Z,16
2019-03-27T04:46:45.173Z,16
2019-03-27T04:47:46.561Z,16
2019-03-27T04:48:47.940Z,20
2019-03-27T04:49:49.327Z,20
2019-03-27T04:50:50.713Z,28
2019-03-27T04:51:52.091Z,28
2019-03-27T04:52:53.475Z,28
2019-03-27T04:53:54.854Z,28
2019-03-27T04:54:56.241Z,32
2019-03-27T04:55:57.627Z,32
2019-03-27T04:56:59.016Z,28
2019-03-27T04:58:00.397Z,32
2019-03-27T04:59:01.777Z,40
2019-03-27T05:00:03.166Z,40
2019-03-27T05:01:04.622Z,48
2019-03-27T05:02:06.727Z,52
2019-03-27T05:03:07.402Z,76
2019-03-27T05:04:08.804Z,84
2019-03-27T05:05:10.264Z,100
2019-03-27T05:06:11.660Z,96
2019-03-27T05:07:13.902Z,140
2019-03-27T05:08:14.410Z,136
2019-03-27T05:09:15.801Z,172
2019-03-27T05:10:17.222Z,196
2019-03-27T05:11:18.660Z,204
2019-03-27T05:12:20.282Z,216
2019-03-27T05:13:21.673Z,228
2019-03-27T05:14:23.058Z,248
2019-03-27T05:15:24.450Z,248
2019-03-27T05:16:25.835Z,276
2019-03-27T05:17:27.223Z,300
2019-03-27T05:18:28.667Z,296
2019-03-27T05:19:30.133Z,308
2019-03-27T05:20:31.655Z,388
2019-03-27T05:21:33.037Z,456
2019-03-27T05:22:34.432Z,564
2019-03-27T05:23:35.867Z,704
2019-03-27T05:24:37.277Z,876
2019-03-27T05:25:38.673Z,1012
2019-03-27T05:26:40.058Z,1120
2019-03-27T05:27:41.542Z,1028
2019-03-27T05:28:42.927Z,700
2019-03-27T05:29:44.313Z,464
2019-03-27T05:30:45.695Z,404
2019-03-27T05:31:47.082Z,460
2019-03-27T05:32:48.487Z,440
2019-03-27T05:33:49.940Z,352
2019-03-27T05:34:51.408Z,300
2019-03-27T05:35:52.842Z,320
2019-03-27T05:36:54.299Z,296
2019-03-27T05:37:55.692Z,288
2019-03-27T05:38:57.131Z,276
2019-03-27T05:39:58.506Z,284
2019-03-27T05:40:59.930Z,312
2019-03-27T05:42:01.333Z,412
2019-03-27T05:43:02.850Z,580
2019-03-27T05:44:04.238Z,744
2019-03-27T05:45:05.638Z,868
2019-03-27T05:46:07.033Z,836
2019-03-27T05:47:08.416Z,1056
2019-03-27T05:48:09.807Z,1160
2019-03-27T05:49:11.241Z,1024
2019-03-27T05:50:12.583Z,1088
2019-03-27T05:51:13.974Z,980
2019-03-27T05:52:15.352Z,780
2019-03-27T05:53:16.742Z,808
2019-03-27T05:54:18.125Z,832
2019-03-27T05:55:19.514Z,768
2019-03-27T05:56:20.907Z,876
2019-03-27T05:57:22.289Z,896
2019-03-27T05:58:23.723Z,712
2019-03-27T05:59:25.829Z,692
2019-03-27T06:00:27.252Z,800
2019-03-27T06:01:28.665Z,848
2019-03-27T06:02:30.056Z,848
2019-03-27T06:03:31.473Z,888
2019-03-27T06:04:32.862Z,1276
2019-03-27T06:05:34.250Z,1748
2019-03-27T06:06:35.668Z,2088
2019-03-27T06:07:37.094Z,1740
2019-03-27T06:08:38.378Z,1416
2019-03-27T06:09:39.766Z,944
2019-03-27T06:10:41.154Z,936
2019-03-27T06:11:42.540Z,956
2019-03-27T06:12:43.927Z,856
2019-03-27T06:13:45.342Z,856
2019-03-27T06:14:46.721Z,816
2019-03-27T06:15:48.115Z,708
2019-03-27T06:16:49.511Z,672
2019-03-27T06:17:50.899Z,700
2019-03-27T06:18:52.287Z,532
2019-03-27T06:19:53.671Z,540
2019-03-27T06:20:55.070Z,588
2019-03-27T06:21:56.462Z,552
2019-03-27T06:22:57.851Z,660
2019-03-27T06:23:59.242Z,736
2019-03-27T06:25:00.634Z,760
2019-03-27T06:26:02.018Z,724
2019-03-27T06:27:03.410Z,780
2019-03-27T06:28:04.798Z,1000
2019-03-27T06:29:06.211Z,1184
2019-03-27T06:30:07.617Z,1140
2019-03-27T06:31:09.008Z,1188
2019-03-27T06:32:10.403Z,1248
2019-03-27T06:33:11.796Z,1192
2019-03-27T06:34:13.180Z,1100
2019-03-27T06:35:14.574Z,1140
2019-03-27T06:36:15.969Z,1204
2019-03-27T06:37:17.360Z,1188
2019-03-27T06:38:18.750Z,1272
2019-03-27T06:39:20.153Z,1172
2019-03-27T06:40:21.553Z,1352
2019-03-27T06:41:22.945Z,1476
2019-03-27T06:42:24.351Z,1444
2019-03-27T06:43:25.737Z,1384
2019-03-27T06:44:27.148Z,1296
2019-03-27T06:45:28.537Z,1272
2019-03-27T06:46:29.915Z,1320
2019-03-27T06:47:31.317Z,1240
2019-03-27T06:48:32.705Z,1244
2019-03-27T06:49:34.107Z,1276
2019-03-27T06:50:35.497Z,1288
2019-03-27T06:51:40.353Z,1260
2019-03-27T06:52:38.238Z,1256
2019-03-27T06:53:39.634Z,1144
2019-03-27T06:54:41.050Z,1080
2019-03-27T06:55:42.437Z,964
2019-03-27T06:56:43.877Z,948
2019-03-27T06:57:45.218Z,884
2019-03-27T06:58:54.613Z,852
2019-03-27T06:59:47.972Z,912
2019-03-27T07:00:49.377Z,932
2019-03-27T07:01:50.786Z,960
2019-03-27T07:02:52.196Z,944
2019-03-27T07:03:53.592Z,1100
2019-03-27T07:04:54.988Z,1176
2019-03-27T07:05:56.376Z,1236
2019-03-27T07:06:57.836Z,1240
2019-03-27T07:07:59.329Z,1256
2019-03-27T07:09:00.765Z,1228
2019-03-27T07:10:02.187Z,1144
2019-03-27T07:11:03.577Z,1128
2019-03-27T07:12:04.986Z,1140
2019-03-27T07:13:06.393Z,1168
2019-03-27T07:14:07.832Z,1200
2019-03-27T07:15:09.228Z,1292
2019-03-27T07:16:10.619Z,1436
2019-03-27T07:17:12.013Z,1556
2019-03-27T07:18:13.427Z,1636
2019-03-27T07:19:14.817Z,1452
2019-03-27T07:20:16.206Z,1612
2019-03-27T07:21:17.603Z,1580
2019-03-27T07:22:18.940Z,1848
2019-03-27T07:23:20.383Z,1880
2019-03-27T07:24:21.736Z,2068
2019-03-27T07:25:23.136Z,2116
2019-03-27T07:26:24.532Z,2748
2019-03-27T07:27:25.977Z,2912
2019-03-27T07:28:27.459Z,2792
2019-03-27T07:29:28.941Z,2684
2019-03-27T07:30:30.346Z,3364
2019-03-27T07:31:31.747Z,2860
2019-03-27T07:32:33.155Z,3192
2019-03-27T07:33:34.550Z,2960
2019-03-27T07:34:35.949Z,2552
2019-03-27T07:35:37.351Z,2568
2019-03-27T07:36:38.761Z,2488
2019-03-27T07:37:40.161Z,2536
2019-03-27T07:38:41.551Z,2332
2019-03-27T07:39:42.977Z,2584
2019-03-27T07:40:44.429Z,2200
2019-03-27T07:41:45.858Z,2620
2019-03-27T07:42:47.331Z,2568
2019-03-27T07:43:48.667Z,2528
2019-03-27T07:44:50.011Z,2704
2019-03-27T07:45:51.475Z,2680
2019-03-27T07:46:52.897Z,3744
2019-03-27T07:47:54.308Z,4212
2019-03-27T07:48:55.751Z,4212
2019-03-27T07:49:57.265Z,4908
2019-03-27T07:50:58.649Z,5636
2019-03-27T07:52:00.071Z,4924
2019-03-27T07:53:01.468Z,5988
2019-03-27T07:54:02.877Z,4876
2019-03-27T07:55:04.277Z,4204
2019-03-27T07:56:05.768Z,4256
2019-03-27T07:57:07.158Z,4264
2019-03-27T07:58:08.550Z,3836
2019-03-27T07:59:09.960Z,3356
2019-03-27T08:00:11.362Z,3484
2019-03-27T08:01:12.764Z,3104
2019-03-27T08:02:14.167Z,3916
2019-03-27T08:03:15.575Z,4008
2019-03-27T08:04:17.017Z,4228
2019-03-27T08:05:18.440Z,3080
2019-03-27T08:06:19.828Z,2968
2019-03-27T08:07:26.630Z,3136
2019-03-27T08:08:22.621Z,2776
2019-03-27T08:09:24.043Z,3408
2019-03-27T08:10:25.466Z,3116
2019-03-27T08:11:26.919Z,3276
2019-03-27T08:12:28.318Z,3356
2019-03-27T08:13:30.201Z,2544
2019-03-27T08:14:31.592Z,2508
2019-03-27T08:15:32.987Z,2972
2019-03-27T08:16:34.401Z,2992
2019-03-27T08:17:35.795Z,2820
2019-03-27T08:18:37.184Z,2568
2019-03-27T08:19:38.594Z,2644
2019-03-27T08:20:39.988Z,2192
2019-03-27T08:21:41.397Z,2408
2019-03-27T08:22:42.793Z,2532
2019-03-27T08:23:44.197Z,2296
2019-03-27T08:24:45.618Z,2492
2019-03-27T08:25:47.020Z,2816
2019-03-27T08:26:48.478Z,2648
2019-03-27T08:27:49.920Z,2720
2019-03-27T08:28:51.317Z,4628
2019-03-27T08:29:52.707Z,4336
2019-03-27T08:30:54.090Z,4976
2019-03-27T08:31:55.500Z,6708
2019-03-27T08:32:56.897Z,8928
2019-03-27T08:33:58.314Z,5904
2019-03-27T08:34:59.705Z,5996
2019-03-27T08:36:01.103Z,5444
2019-03-27T08:37:02.515Z,6780
2019-03-27T08:38:03.917Z,7124
2019-03-27T08:39:05.307Z,8508
2019-03-27T08:40:06.706Z,6288
2019-03-27T08:41:08.127Z,4276
2019-03-27T08:42:09.522Z,5640
2019-03-27T08:43:20.596Z,5092
2019-03-27T08:44:12.305Z,6208
2019-03-27T08:45:13.703Z,4316
2019-03-27T08:46:15.103Z,4968
2019-03-27T08:47:16.504Z,5836
2019-03-27T08:48:17.914Z,5640
2019-03-27T08:49:22.121Z,5248
2019-03-27T08:50:20.688Z,4972
2019-03-27T08:51:22.084Z,7928
2019-03-27T08:52:23.521Z,5528
2019-03-27T08:53:24.937Z,4352
2019-03-27T08:54:26.337Z,4224
2019-03-27T08:55:27.732Z,5628
2019-03-27T08:56:29.146Z,5828
2019-03-27T08:57:30.554Z,7304
2019-03-27T08:58:31.939Z,6008
2019-03-27T08:59:33.371Z,6012
2019-03-27T09:00:34.853Z,6768
2019-03-27T09:01:36.269Z,6008
2019-03-27T09:02:37.716Z,6992
2019-03-27T09:03:39.118Z,7380
2019-03-27T09:04:40.519Z,6836
2019-03-27T09:05:41.927Z,5948
2019-03-27T09:06:43.339Z,4020
2019-03-27T09:07:44.735Z,4204
2019-03-27T09:08:46.147Z,4716
2019-03-27T09:09:47.549Z,5812
2019-03-27T09:10:48.963Z,6140
2019-03-27T09:11:50.361Z,7120
2019-03-27T09:12:51.771Z,4716
2019-03-27T09:13:53.183Z,4100
2019-03-27T09:14:54.592Z,2804
2019-03-27T09:15:56.037Z,2656
2019-03-27T09:16:57.441Z,2884
2019-03-27T09:17:58.840Z,2980
2019-03-27T09:19:00.318Z,2920
2019-03-27T09:20:01.747Z,3036
2019-03-27T09:21:03.149Z,3416
2019-03-27T09:22:04.549Z,3056
2019-03-27T09:23:05.948Z,3048
2019-03-27T09:24:07.351Z,2820
2019-03-27T09:25:08.749Z,3244
2019-03-27T09:26:10.140Z,2880
2019-03-27T09:27:11.536Z,2468
2019-03-27T09:28:12.932Z,3148
2019-03-27T09:29:14.358Z,4356
2019-03-27T09:30:15.777Z,5988
2019-03-27T09:31:17.174Z,6792
2019-03-27T09:32:18.567Z,8252
2019-03-27T09:33:19.981Z,7420
2019-03-27T09:34:21.383Z,5556
2019-03-27T09:35:22.781Z,6756
2019-03-27T09:36:24.190Z,8256
2019-03-27T09:37:25.598Z,11576
2019-03-27T09:38:26.993Z,8788
2019-03-27T09:39:28.389Z,6452
2019-03-27T09:40:29.795Z,5340
2019-03-27T09:41:31.195Z,4916
2019-03-27T09:42:32.592Z,4644
2019-03-27T09:43:33.995Z,3312
2019-03-27T09:44:35.395Z,3528
2019-03-27T09:45:36.786Z,3864
2019-03-27T09:46:38.186Z,4812
2019-03-27T09:47:39.594Z,4300
2019-03-27T09:48:40.991Z,3972
2019-03-27T09:49:49.454Z,4200
2019-03-27T09:50:43.751Z,4420
2019-03-27T09:51:45.152Z,3632
2019-03-27T09:52:46.547Z,3664
2019-03-27T09:53:48.041Z,3592
2019-03-27T09:54:49.305Z,3628
2019-03-27T09:55:50.708Z,3448
2019-03-27T09:56:52.105Z,3628
2019-03-27T09:57:53.495Z,4360
2019-03-27T09:58:54.897Z,4884
2019-03-27T09:59:56.304Z,3732
2019-03-27T10:00:57.700Z,3924
2019-03-27T10:01:59.095Z,3684
2019-03-27T10:03:00.515Z,4344
2019-03-27T10:04:01.917Z,4228
2019-03-27T10:05:03.318Z,4276
2019-03-27T10:06:04.704Z,4304
2019-03-27T10:07:06.110Z,4660
2019-03-27T10:08:07.510Z,4132
2019-03-27T10:09:08.920Z,4120
2019-03-27T10:10:10.313Z,3884
2019-03-27T10:11:11.728Z,3848
2019-03-27T10:12:13.132Z,3956
2019-03-27T10:13:14.521Z,4928
2019-03-27T10:14:15.917Z,4932
2019-03-27T10:15:17.318Z,4248
2019-03-27T10:16:18.701Z,4260
2019-03-27T10:17:20.096Z,4776
2019-03-27T10:18:21.509Z,4500
2019-03-27T10:19:22.916Z,3912
2019-03-27T10:20:24.318Z,3636
2019-03-27T10:21:25.749Z,3244
2019-03-27T10:22:27.139Z,2896
2019-03-27T10:23:28.550Z,2680
2019-03-27T10:24:29.939Z,2488
2019-03-27T10:25:31.334Z,3040
2019-03-27T10:26:32.729Z,2932
2019-03-27T10:27:34.120Z,2260
2019-03-27T10:28:35.521Z,2472
2019-03-27T10:29:36.919Z,2964
2019-03-27T10:30:38.321Z,4840
2019-03-27T10:31:39.723Z,4484
2019-03-27T10:32:41.119Z,3356
2019-03-27T10:33:42.521Z,2768
2019-03-27T10:34:43.927Z,2540
2019-03-27T10:35:45.321Z,2252
2019-03-27T10:36:46.767Z,2576
2019-03-27T10:37:48.215Z,3564
2019-03-27T10:38:49.591Z,3496
2019-03-27T10:39:50.975Z,3684
2019-03-27T10:40:52.380Z,3636
2019-03-27T10:41:53.788Z,3108
2019-03-27T10:42:55.181Z,2748
2019-03-27T10:43:56.579Z,3176
2019-03-27T10:44:58.002Z,3408
2019-03-27T10:45:59.424Z,3320
2019-03-27T10:47:00.820Z,3172
2019-03-27T10:48:02.246Z,2912
2019-03-27T10:49:03.648Z,2604
2019-03-27T10:50:17.112Z,2360
2019-03-27T10:51:06.477Z,2040
2019-03-27T10:52:07.873Z,2244
2019-03-27T10:53:09.271Z,2496
2019-03-27T10:54:10.673Z,2992
2019-03-27T10:55:12.066Z,3572
2019-03-27T10:56:13.476Z,3984
2019-03-27T10:57:14.877Z,3328
2019-03-27T10:58:16.276Z,2788
2019-03-27T10:59:17.664Z,2616
2019-03-27T11:00:19.060Z,2384
2019-03-27T11:01:20.464Z,2196
2019-03-27T11:02:21.859Z,2372
2019-03-27T11:03:23.267Z,2436
2019-03-27T11:04:24.683Z,2852
2019-03-27T11:05:26.087Z,3036
2019-03-27T11:06:27.481Z,2952
2019-03-27T11:07:28.879Z,3380
2019-03-27T11:08:30.273Z,3112
2019-03-27T11:09:31.689Z,2248
2019-03-27T11:10:33.129Z,1940
2019-03-27T11:11:34.526Z,1764
2019-03-27T11:12:35.928Z,2480
2019-03-27T11:13:37.320Z,2876
2019-03-27T11:14:38.734Z,2756
2019-03-27T11:15:40.131Z,2688
2019-03-27T11:16:41.524Z,2964
2019-03-27T11:17:42.992Z,2564
2019-03-27T11:18:44.392Z,2632
2019-03-27T11:19:45.804Z,2784
2019-03-27T11:20:47.208Z,2620
2019-03-27T11:21:48.606Z,2916
2019-03-27T11:22:50.008Z,2644
2019-03-27T11:23:51.399Z,2468
2019-03-27T11:24:52.881Z,1992
2019-03-27T11:25:54.293Z,2212
2019-03-27T11:26:55.684Z,2368
2019-03-27T11:27:57.082Z,2604
2019-03-27T11:28:58.479Z,2864
2019-03-27T11:29:59.896Z,2564
2019-03-27T11:31:01.290Z,2608
2019-03-27T11:32:02.696Z,2256
2019-03-27T11:33:04.075Z,2056
2019-03-27T11:34:05.473Z,2208
2019-03-27T11:35:06.877Z,1896
2019-03-27T11:36:08.279Z,2064
2019-03-27T11:37:09.677Z,3040
2019-03-27T11:38:11.076Z,2636
2019-03-27T11:39:12.465Z,2096
2019-03-27T11:40:13.900Z,2448
2019-03-27T11:41:15.318Z,3028
2019-03-27T11:42:16.728Z,3280
2019-03-27T11:43:18.120Z,2728
2019-03-27T11:44:19.520Z,2236
2019-03-27T11:45:20.924Z,1544
2019-03-27T11:46:22.314Z,1696
2019-03-27T11:47:23.768Z,1576
2019-03-27T11:48:25.187Z,2584
2019-03-27T11:49:26.592Z,2788
2019-03-27T11:50:27.985Z,2080
2019-03-27T11:51:29.375Z,2228
2019-03-27T11:52:30.809Z,2384
2019-03-27T11:53:32.205Z,1904
2019-03-27T11:54:33.598Z,2164
2019-03-27T11:55:34.996Z,2668
2019-03-27T11:56:36.359Z,2784
2019-03-27T11:57:37.867Z,2624
2019-03-27T11:58:39.263Z,2736
2019-03-27T11:59:52.888Z,3140
2019-03-27T12:00:53.905Z,3284
2019-03-27T12:01:58.795Z,2784
2019-03-27T12:03:04.406Z,3036
2019-03-27T12:04:10.737Z,2336
2019-03-27T12:05:12.074Z,2300
2019-03-27T12:06:13.518Z,2752
2019-03-27T12:07:19.612Z,2980
2019-03-27T12:13:42.530Z,2112
2019-03-27T12:15:16.296Z,1964
2019-03-27T12:16:17.720Z,2056
2019-03-27T12:17:19.120Z,2380
2019-03-27T12:18:20.535Z,2584
2019-03-27T12:19:21.922Z,2544
2019-03-27T12:20:24.076Z,2500
2019-03-27T12:21:25.469Z,2476
2019-03-27T12:22:26.865Z,2400
2019-03-27T12:23:28.272Z,2248
2019-03-27T12:24:29.679Z,2128
2019-03-27T12:25:31.069Z,2200
2019-03-27T12:26:32.465Z,2416
2019-03-27T12:27:33.869Z,2716
2019-03-27T12:28:35.257Z,2452
2019-03-27T12:29:36.659Z,1976
2019-03-27T12:30:38.045Z,2844
2019-03-27T12:31:39.458Z,2564
2019-03-27T12:32:40.844Z,1796
2019-03-27T12:33:42.245Z,1512
2019-03-27T12:34:43.641Z,1640
2019-03-27T12:35:45.027Z,1524
2019-03-27T12:36:46.416Z,1384
2019-03-27T12:37:47.810Z,1740
2019-03-27T12:38:49.198Z,1520
2019-03-27T12:39:50.595Z,1912
2019-03-27T12:40:52.002Z,2028
2019-03-27T12:41:53.393Z,2168
2019-03-27T12:42:54.787Z,2232
2019-03-27T12:43:56.178Z,2276
2019-03-27T12:44:57.571Z,2192
2019-03-27T12:45:58.961Z,2052
2019-03-27T12:47:00.356Z,1760
2019-03-27T12:48:01.763Z,1804
2019-03-27T12:49:03.170Z,1904
2019-03-27T12:50:04.575Z,1996
2019-03-27T12:51:12.610Z,2268
2019-03-27T12:52:07.325Z,2248
2019-03-27T12:53:08.720Z,2172
2019-03-27T12:54:10.117Z,2664
2019-03-27T12:55:11.529Z,2000
2019-03-27T12:56:12.915Z,2120
2019-03-27T12:57:14.314Z,2432
2019-03-27T12:58:15.723Z,2636
2019-03-27T12:59:17.121Z,2340
2019-03-27T13:00:18.515Z,2348
2019-03-27T13:01:19.906Z,2824
2019-03-27T13:02:21.301Z,2936
2019-03-27T13:03:22.697Z,2632
2019-03-27T13:04:24.088Z,2428
2019-03-27T13:05:25.489Z,2364
2019-03-27T13:06:26.882Z,2700
2019-03-27T13:07:28.278Z,2436
2019-03-27T13:08:29.698Z,2856
2019-03-27T13:09:31.105Z,2632
2019-03-27T13:10:32.505Z,2616
2019-03-27T13:11:36.514Z,2232
2019-03-27T13:12:35.258Z,2076
2019-03-27T13:13:36.657Z,1804
2019-03-27T13:14:38.076Z,2188
2019-03-27T13:15:39.481Z,2364
2019-03-27T13:16:40.878Z,2408
2019-03-27T13:17:42.270Z,2096
2019-03-27T13:18:43.670Z,2632
2019-03-27T13:19:45.075Z,2220
2019-03-27T13:20:46.475Z,1960
2019-03-27T13:21:47.869Z,2100
2019-03-27T13:22:49.262Z,2056
2019-03-27T13:23:51.307Z,2140
2019-03-27T13:24:53.221Z,2252
2019-03-27T13:25:55.110Z,2484
2019-03-27T13:26:57.011Z,2216
2019-03-27T13:27:58.907Z,2220
2019-03-27T13:29:00.999Z,2440
2019-03-27T13:30:03.048Z,2640
2019-03-27T13:31:05.006Z,2612
2019-03-27T13:32:07.003Z,2456
2019-03-27T13:33:08.927Z,2392
2019-03-27T13:34:10.687Z,2488
2019-03-27T13:35:12.538Z,2672
2019-03-27T13:36:14.304Z,2740
2019-03-27T13:37:16.166Z,2268
2019-03-27T13:38:17.973Z,2136
2019-03-27T13:39:19.863Z,2104
2019-03-27T13:40:21.728Z,2056
2019-03-27T13:41:23.589Z,2240
2019-03-27T13:42:25.519Z,2528
2019-03-27T13:43:27.413Z,2716
2019-03-27T13:44:36.784Z,2752
2019-03-27T13:45:31.776Z,2772
2019-03-27T13:46:33.805Z,2944
2019-03-27T13:47:36.010Z,2668
2019-03-27T13:48:37.963Z,2588
2019-03-27T13:49:39.741Z,2388
2019-03-27T13:50:41.527Z,2156
2019-03-27T13:51:43.503Z,2008
2019-03-27T13:52:44.905Z,1840
2019-03-27T13:53:46.317Z,1984
2019-03-27T13:54:47.809Z,1996
2019-03-27T13:55:49.228Z,1844
2019-03-27T13:56:50.639Z,1544
2019-03-27T13:57:52.046Z,1384
2019-03-27T13:58:53.436Z,1504
2019-03-27T13:59:54.838Z,1464
2019-03-27T14:00:56.228Z,1480
2019-03-27T14:01:57.626Z,1548
2019-03-27T14:02:59.017Z,1464
2019-03-27T14:04:00.412Z,1472
2019-03-27T14:05:01.809Z,1408
2019-03-27T14:06:03.201Z,1424
2019-03-27T14:07:04.596Z,1248
2019-03-27T14:08:05.994Z,1180
2019-03-27T14:09:07.389Z,1036
2019-03-27T14:10:08.778Z,936
2019-03-27T14:11:10.178Z,1048
2019-03-27T14:12:11.581Z,1016
2019-03-27T14:13:12.987Z,884
2019-03-27T14:14:14.380Z,896
2019-03-27T14:15:15.779Z,844
2019-03-27T14:16:17.181Z,916